sensor_id;sensor_type;location;lat;lon;timestamp;P1;P2;P0
33264;PMS5003;31404;53.974;-1.086;2022-12-07T00:00:35;1;1;
33264;PMS5003;31404;53.974;-1.086;2022-12-07T00:05:34;2;2;
33264;PMS5003;31404;53.974;-1.086;2022-12-07T00:10:35;1;1;
33264;PMS5003;31404;53.974;-1.086;2022-12-07T00:15:34;4;3;
33264;PMS5003;31404;53.974;-1.086;2022-12-07T00:20:34;5;2;
33264;PMS5003;31404;53.974;-1.086;2022-12-07T00:25:35;3;3;
33264;PMS5003;31404;53.974;-1.086;2022-12-07T00:30:34;2;2;
33264;PMS5003;31404;53.974;-1.086;2022-12-07T00:35:34;3;3;
33264;PMS5003;31404;53.974;-1.086;2022-12-07T00:40:34;4;4;
33264;PMS5003;31404;53.974;-1.086;2022-12-07T00:45:34;3;3;
33264;PMS5003;31404;53.974;-1.086;2022-12-07T00:50:34;2;2;
33264;PMS5003;31404;53.974;-1.086;2022-12-07T00:55:34;1;1;
33264;PMS5003;31404;53.974;-1.086;2022-12-07T01:00:35;4;3;
33264;PMS5003;31404;53.974;-1.086;2022-12-07T01:05:34;4;4;
33264;PMS5003;31404;53.974;-1.086;2022-12-07T01:10:34;3;2;
33264;PMS5003;31404;53.974;-1.086;2022-12-07T01:15:34;2;2;
33264;PMS5003;31404;53.974;-1.086;2022-12-07T01:20:29;0;0;
33264;PMS5003;31404;53.974;-1.086;2022-12-07T01:25:34;2;1;
33264;PMS5003;31404;53.974;-1.086;2022-12-07T01:30:34;4;2;
33264;PMS5003;31404;53.974;-1.086;2022-12-07T01:35:34;4;2;
33264;PMS5003;31404;53.974;-1.086;2022-12-07T01:40:34;2;2;
33264;PMS5003;31404;53.974;-1.086;2022-12-07T01:45:37;3;1;
33264;PMS5003;31404;53.974;-1.086;2022-12-07T01:50:34;1;1;
33264;PMS5003;31404;53.974;-1.086;2022-12-07T01:55:34;1;1;
33264;PMS5003;31404;53.974;-1.086;2022-12-07T02:00:34;1;1;
33264;PMS5003;31404;53.974;-1.086;2022-12-07T02:05:35;3;2;
33264;PMS5003;31404;53.974;-1.086;2022-12-07T02:10:34;2;1;
33264;PMS5003;31404;53.974;-1.086;2022-12-07T02:20:34;1;1;
33264;PMS5003;31404;53.974;-1.086;2022-12-07T02:30:35;1;1;
33264;PMS5003;31404;53.974;-1.086;2022-12-07T02:35:36;2;1;
33264;PMS5003;31404;53.974;-1.086;2022-12-07T02:40:35;1;1;
33264;PMS5003;31404;53.974;-1.086;2022-12-07T02:45:35;1;1;
33264;PMS5003;31404;53.974;-1.086;2022-12-07T02:50:34;1;1;
33264;PMS5003;31404;53.974;-1.086;2022-12-07T02:55:38;3;2;
33264;PMS5003;31404;53.974;-1.086;2022-12-07T03:00:35;2;2;
33264;PMS5003;31404;53.974;-1.086;2022-12-07T03:10:36;0;0;
33264;PMS5003;31404;53.974;-1.086;2022-12-07T03:15:35;2;2;
33264;PMS5003;31404;53.974;-1.086;2022-12-07T03:20:34;1;1;
33264;PMS5003;31404;53.974;-1.086;2022-12-07T03:25:34;1;1;
33264;PMS5003;31404;53.974;-1.086;2022-12-07T03:30:35;0;0;
33264;PMS5003;31404;53.974;-1.086;2022-12-07T03:35:35;0;0;
33264;PMS5003;31404;53.974;-1.086;2022-12-07T03:40:35;2;2;
33264;PMS5003;31404;53.974;-1.086;2022-12-07T03:45:37;1;1;
33264;PMS5003;31404;53.974;-1.086;2022-12-07T03:50:37;0;0;
33264;PMS5003;31404;53.974;-1.086;2022-12-07T03:55:35;1;1;
33264;PMS5003;31404;53.974;-1.086;2022-12-07T04:00:34;3;1;
33264;PMS5003;31404;53.974;-1.086;2022-12-07T04:05:34;1;1;
33264;PMS5003;31404;53.974;-1.086;2022-12-07T04:10:34;1;1;
33264;PMS5003;31404;53.974;-1.086;2022-12-07T04:15:34;1;1;
33264;PMS5003;31404;53.974;-1.086;2022-12-07T04:20:34;0;0;
33264;PMS5003;31404;53.974;-1.086;2022-12-07T04:25:34;0;0;
33264;PMS5003;31404;53.974;-1.086;2022-12-07T04:30:34;2;1;
33264;PMS5003;31404;53.974;-1.086;2022-12-07T04:35:34;0;0;
33264;PMS5003;31404;53.974;-1.086;2022-12-07T04:40:34;1;1;
33264;PMS5003;31404;53.974;-1.086;2022-12-07T04:45:34;1;1;
33264;PMS5003;31404;53.974;-1.086;2022-12-07T04:50:35;2;2;
33264;PMS5003;31404;53.974;-1.086;2022-12-07T04:55:33;2;1;
33264;PMS5003;31404;53.974;-1.086;2022-12-07T05:00:33;3;1;
33264;PMS5003;31404;53.974;-1.086;2022-12-07T05:05:33;1;1;
33264;PMS5003;31404;53.974;-1.086;2022-12-07T05:10:34;2;2;
33264;PMS5003;31404;53.974;-1.086;2022-12-07T05:15:34;1;1;
33264;PMS5003;31404;53.974;-1.086;2022-12-07T05:20:34;1;1;
33264;PMS5003;31404;53.974;-1.086;2022-12-07T05:25:35;0;0;
33264;PMS5003;31404;53.974;-1.086;2022-12-07T05:30:34;1;1;
33264;PMS5003;31404;53.974;-1.086;2022-12-07T05:35:34;2;2;
33264;PMS5003;31404;53.974;-1.086;2022-12-07T05:40:34;1;1;
33264;PMS5003;31404;53.974;-1.086;2022-12-07T05:45:34;1;1;
33264;PMS5003;31404;53.974;-1.086;2022-12-07T05:50:34;2;1;
33264;PMS5003;31404;53.974;-1.086;2022-12-07T05:55:34;1;1;
33264;PMS5003;31404;53.974;-1.086;2022-12-07T06:00:34;9;5;
33264;PMS5003;31404;53.974;-1.086;2022-12-07T06:05:34;5;3;
33264;PMS5003;31404;53.974;-1.086;2022-12-07T06:10:34;1;1;
33264;PMS5003;31404;53.974;-1.086;2022-12-07T06:15:35;6;3;
33264;PMS5003;31404;53.974;-1.086;2022-12-07T06:20:34;2;2;
33264;PMS5003;31404;53.974;-1.086;2022-12-07T06:25:38;3;2;
33264;PMS5003;31404;53.974;-1.086;2022-12-07T06:30:35;3;1;
33264;PMS5003;31404;53.974;-1.086;2022-12-07T06:35:33;1;1;
33264;PMS5003;31404;53.974;-1.086;2022-12-07T06:40:34;1;1;
33264;PMS5003;31404;53.974;-1.086;2022-12-07T06:45:34;4;2;
33264;PMS5003;31404;53.974;-1.086;2022-12-07T06:50:35;1;1;
33264;PMS5003;31404;53.974;-1.086;2022-12-07T06:55:34;1;1;
33264;PMS5003;31404;53.974;-1.086;2022-12-07T07:00:34;3;3;
33264;PMS5003;31404;53.974;-1.086;2022-12-07T07:05:35;2;2;
33264;PMS5003;31404;53.974;-1.086;2022-12-07T07:10:34;1;1;
33264;PMS5003;31404;53.974;-1.086;2022-12-07T07:15:34;0;0;
33264;PMS5003;31404;53.974;-1.086;2022-12-07T07:20:34;2;2;
33264;PMS5003;31404;53.974;-1.086;2022-12-07T07:25:34;1;1;
33264;PMS5003;31404;53.974;-1.086;2022-12-07T07:30:35;3;3;
33264;PMS5003;31404;53.974;-1.086;2022-12-07T07:40:34;2;2;
33264;PMS5003;31404;53.974;-1.086;2022-12-07T07:45:34;5;3;
33264;PMS5003;31404;53.974;-1.086;2022-12-07T07:50:34;8;8;
33264;PMS5003;31404;53.974;-1.086;2022-12-07T07:55:34;8;5;
33264;PMS5003;31404;53.974;-1.086;2022-12-07T08:00:34;2;1;
33264;PMS5003;31404;53.974;-1.086;2022-12-07T08:05:36;6;6;
33264;PMS5003;31404;53.974;-1.086;2022-12-07T08:10:34;13;13;
33264;PMS5003;31404;53.974;-1.086;2022-12-07T08:15:35;17;14;
33264;PMS5003;31404;53.974;-1.086;2022-12-07T08:20:34;13;9;
33264;PMS5003;31404;53.974;-1.086;2022-12-07T08:25:35;15;14;
33264;PMS5003;31404;53.974;-1.086;2022-12-07T08:30:34;4;4;
33264;PMS5003;31404;53.974;-1.086;2022-12-07T08:35:34;4;4;
33264;PMS5003;31404;53.974;-1.086;2022-12-07T08:40:34;4;3;
33264;PMS5003;31404;53.974;-1.086;2022-12-07T08:45:28;6;3;
33264;PMS5003;31404;53.974;-1.086;2022-12-07T08:50:34;2;2;
33264;PMS5003;31404;53.974;-1.086;2022-12-07T08:55:34;4;3;
33264;PMS5003;31404;53.974;-1.086;2022-12-07T09:00:34;3;2;
33264;PMS5003;31404;53.974;-1.086;2022-12-07T09:05:34;4;4;
33264;PMS5003;31404;53.974;-1.086;2022-12-07T09:10:34;3;2;
33264;PMS5003;31404;53.974;-1.086;2022-12-07T09:15:34;2;2;
33264;PMS5003;31404;53.974;-1.086;2022-12-07T09:20:34;2;2;
33264;PMS5003;31404;53.974;-1.086;2022-12-07T09:25:35;3;3;
33264;PMS5003;31404;53.974;-1.086;2022-12-07T09:35:34;7;3;
33264;PMS5003;31404;53.974;-1.086;2022-12-07T09:40:34;7;4;
33264;PMS5003;31404;53.974;-1.086;2022-12-07T09:45:34;2;2;
33264;PMS5003;31404;53.974;-1.086;2022-12-07T09:50:34;2;2;
33264;PMS5003;31404;53.974;-1.086;2022-12-07T09:55:28;1;1;
33264;PMS5003;31404;53.974;-1.086;2022-12-07T10:00:34;3;3;
33264;PMS5003;31404;53.974;-1.086;2022-12-07T10:05:35;1;1;
33264;PMS5003;31404;53.974;-1.086;2022-12-07T10:10:34;2;2;
33264;PMS5003;31404;53.974;-1.086;2022-12-07T10:20:34;7;3;
33264;PMS5003;31404;53.974;-1.086;2022-12-07T10:25:34;1;1;
33264;PMS5003;31404;53.974;-1.086;2022-12-07T10:30:34;5;4;
33264;PMS5003;31404;53.974;-1.086;2022-12-07T10:35:34;3;3;
33264;PMS5003;31404;53.974;-1.086;2022-12-07T10:40:34;3;3;
33264;PMS5003;31404;53.974;-1.086;2022-12-07T10:45:34;3;3;
33264;PMS5003;31404;53.974;-1.086;2022-12-07T10:55:38;5;4;
33264;PMS5003;31404;53.974;-1.086;2022-12-07T11:00:36;8;3;
33264;PMS5003;31404;53.974;-1.086;2022-12-07T11:05:36;8;4;
33264;PMS5003;31404;53.974;-1.086;2022-12-07T11:10:37;5;4;
33264;PMS5003;31404;53.974;-1.086;2022-12-07T11:15:49;4;3;
33264;PMS5003;31404;53.974;-1.086;2022-12-07T11:20:38;4;2;
33264;PMS5003;31404;53.974;-1.086;2022-12-07T11:25:36;4;4;
33264;PMS5003;31404;53.974;-1.086;2022-12-07T11:30:35;3;3;
33264;PMS5003;31404;53.974;-1.086;2022-12-07T11:35:36;2;2;
33264;PMS5003;31404;53.974;-1.086;2022-12-07T11:40:34;4;3;
33264;PMS5003;31404;53.974;-1.086;2022-12-07T11:45:35;3;3;
33264;PMS5003;31404;53.974;-1.086;2022-12-07T11:50:36;8;3;
33264;PMS5003;31404;53.974;-1.086;2022-12-07T12:00:34;4;4;
33264;PMS5003;31404;53.974;-1.086;2022-12-07T12:05:33;3;3;
33264;PMS5003;31404;53.974;-1.086;2022-12-07T12:10:37;5;3;
33264;PMS5003;31404;53.974;-1.086;2022-12-07T12:20:35;1;1;
33264;PMS5003;31404;53.974;-1.086;2022-12-07T12:25:36;3;3;
33264;PMS5003;31404;53.974;-1.086;2022-12-07T12:30:35;2;2;
33264;PMS5003;31404;53.974;-1.086;2022-12-07T12:35:35;1;1;
33264;PMS5003;31404;53.974;-1.086;2022-12-07T12:45:35;3;1;
33264;PMS5003;31404;53.974;-1.086;2022-12-07T12:50:34;12;8;
33264;PMS5003;31404;53.974;-1.086;2022-12-07T13:00:34;3;3;
33264;PMS5003;31404;53.974;-1.086;2022-12-07T13:05:34;7;7;
33264;PMS5003;31404;53.974;-1.086;2022-12-07T13:10:37;13;13;
33264;PMS5003;31404;53.974;-1.086;2022-12-07T13:15:35;17;12;
33264;PMS5003;31404;53.974;-1.086;2022-12-07T13:25:38;17;12;
33264;PMS5003;31404;53.974;-1.086;2022-12-07T13:35:35;0;0;
33264;PMS5003;31404;53.974;-1.086;2022-12-07T13:40:34;3;3;
33264;PMS5003;31404;53.974;-1.086;2022-12-07T13:45:35;2;2;
33264;PMS5003;31404;53.974;-1.086;2022-12-07T13:50:34;4;4;
33264;PMS5003;31404;53.974;-1.086;2022-12-07T13:55:34;3;3;
33264;PMS5003;31404;53.974;-1.086;2022-12-07T14:00:34;2;2;
33264;PMS5003;31404;53.974;-1.086;2022-12-07T14:05:34;2;2;
33264;PMS5003;31404;53.974;-1.086;2022-12-07T14:10:34;1;1;
33264;PMS5003;31404;53.974;-1.086;2022-12-07T14:15:34;1;1;
33264;PMS5003;31404;53.974;-1.086;2022-12-07T14:20:35;2;1;
33264;PMS5003;31404;53.974;-1.086;2022-12-07T14:30:34;2;2;
33264;PMS5003;31404;53.974;-1.086;2022-12-07T14:35:34;3;3;
33264;PMS5003;31404;53.974;-1.086;2022-12-07T14:40:34;1;1;
33264;PMS5003;31404;53.974;-1.086;2022-12-07T14:45:34;2;1;
33264;PMS5003;31404;53.974;-1.086;2022-12-07T14:50:35;3;3;
33264;PMS5003;31404;53.974;-1.086;2022-12-07T14:55:34;2;2;
33264;PMS5003;31404;53.974;-1.086;2022-12-07T15:00:34;3;2;
33264;PMS5003;31404;53.974;-1.086;2022-12-07T15:05:34;2;2;
33264;PMS5003;31404;53.974;-1.086;2022-12-07T15:10:34;4;2;
33264;PMS5003;31404;53.974;-1.086;2022-12-07T15:15:34;4;4;
33264;PMS5003;31404;53.974;-1.086;2022-12-07T15:20:34;6;6;
33264;PMS5003;31404;53.974;-1.086;2022-12-07T15:25:34;12;11;
33264;PMS5003;31404;53.974;-1.086;2022-12-07T15:30:34;12;9;
33264;PMS5003;31404;53.974;-1.086;2022-12-07T15:40:34;3;3;
33264;PMS5003;31404;53.974;-1.086;2022-12-07T15:45:34;3;3;
33264;PMS5003;31404;53.974;-1.086;2022-12-07T15:50:34;2;2;
33264;PMS5003;31404;53.974;-1.086;2022-12-07T15:55:34;5;3;
33264;PMS5003;31404;53.974;-1.086;2022-12-07T16:00:34;15;14;
33264;PMS5003;31404;53.974;-1.086;2022-12-07T16:05:34;11;11;
33264;PMS5003;31404;53.974;-1.086;2022-12-07T16:10:35;3;2;
33264;PMS5003;31404;53.974;-1.086;2022-12-07T16:20:34;5;4;
33264;PMS5003;31404;53.974;-1.086;2022-12-07T16:25:35;4;4;
33264;PMS5003;31404;53.974;-1.086;2022-12-07T16:30:34;4;4;
33264;PMS5003;31404;53.974;-1.086;2022-12-07T16:35:34;6;6;
33264;PMS5003;31404;53.974;-1.086;2022-12-07T16:40:34;2;2;
33264;PMS5003;31404;53.974;-1.086;2022-12-07T16:45:34;5;5;
33264;PMS5003;31404;53.974;-1.086;2022-12-07T16:50:34;11;10;
33264;PMS5003;31404;53.974;-1.086;2022-12-07T16:55:36;10;8;
33264;PMS5003;31404;53.974;-1.086;2022-12-07T17:00:34;8;6;
33264;PMS5003;31404;53.974;-1.086;2022-12-07T17:10:34;9;5;
33264;PMS5003;31404;53.974;-1.086;2022-12-07T17:15:34;8;8;
33264;PMS5003;31404;53.974;-1.086;2022-12-07T17:20:34;10;8;
33264;PMS5003;31404;53.974;-1.086;2022-12-07T17:25:34;7;5;
33264;PMS5003;31404;53.974;-1.086;2022-12-07T17:30:34;9;7;
33264;PMS5003;31404;53.974;-1.086;2022-12-07T17:35:34;10;9;
33264;PMS5003;31404;53.974;-1.086;2022-12-07T17:40:34;10;8;
33264;PMS5003;31404;53.974;-1.086;2022-12-07T17:45:35;9;9;
33264;PMS5003;31404;53.974;-1.086;2022-12-07T17:50:34;13;10;
33264;PMS5003;31404;53.974;-1.086;2022-12-07T17:55:34;14;14;
33264;PMS5003;31404;53.974;-1.086;2022-12-07T18:00:33;13;10;
33264;PMS5003;31404;53.974;-1.086;2022-12-07T18:05:34;21;17;
33264;PMS5003;31404;53.974;-1.086;2022-12-07T18:10:35;14;14;
33264;PMS5003;31404;53.974;-1.086;2022-12-07T18:15:34;16;13;
33264;PMS5003;31404;53.974;-1.086;2022-12-07T18:20:34;10;8;
33264;PMS5003;31404;53.974;-1.086;2022-12-07T18:25:34;10;10;
33264;PMS5003;31404;53.974;-1.086;2022-12-07T18:30:34;15;15;
33264;PMS5003;31404;53.974;-1.086;2022-12-07T18:35:34;16;14;
33264;PMS5003;31404;53.974;-1.086;2022-12-07T18:40:36;15;15;
33264;PMS5003;31404;53.974;-1.086;2022-12-07T18:45:34;45;39;
33264;PMS5003;31404;53.974;-1.086;2022-12-07T18:50:34;22;17;
33264;PMS5003;31404;53.974;-1.086;2022-12-07T18:55:34;14;10;
33264;PMS5003;31404;53.974;-1.086;2022-12-07T19:00:34;18;14;
33264;PMS5003;31404;53.974;-1.086;2022-12-07T19:05:34;9;9;
33264;PMS5003;31404;53.974;-1.086;2022-12-07T19:10:34;15;14;
33264;PMS5003;31404;53.974;-1.086;2022-12-07T19:15:34;20;18;
33264;PMS5003;31404;53.974;-1.086;2022-12-07T19:20:35;18;14;
33264;PMS5003;31404;53.974;-1.086;2022-12-07T19:25:35;15;14;
33264;PMS5003;31404;53.974;-1.086;2022-12-07T19:30:34;19;17;
33264;PMS5003;31404;53.974;-1.086;2022-12-07T19:35:34;14;10;
33264;PMS5003;31404;53.974;-1.086;2022-12-07T19:40:35;11;11;
33264;PMS5003;31404;53.974;-1.086;2022-12-07T19:45:34;17;14;
33264;PMS5003;31404;53.974;-1.086;2022-12-07T19:50:34;10;10;
33264;PMS5003;31404;53.974;-1.086;2022-12-07T20:00:34;17;13;
33264;PMS5003;31404;53.974;-1.086;2022-12-07T20:05:34;11;10;
33264;PMS5003;31404;53.974;-1.086;2022-12-07T20:10:35;13;10;
33264;PMS5003;31404;53.974;-1.086;2022-12-07T20:15:36;9;8;
33264;PMS5003;31404;53.974;-1.086;2022-12-07T20:20:34;15;15;
33264;PMS5003;31404;53.974;-1.086;2022-12-07T20:25:35;30;28;
33264;PMS5003;31404;53.974;-1.086;2022-12-07T20:30:34;38;30;
33264;PMS5003;31404;53.974;-1.086;2022-12-07T20:35:34;30;25;
33264;PMS5003;31404;53.974;-1.086;2022-12-07T20:40:34;30;25;
33264;PMS5003;31404;53.974;-1.086;2022-12-07T20:45:34;21;18;
33264;PMS5003;31404;53.974;-1.086;2022-12-07T20:50:34;35;33;
33264;PMS5003;31404;53.974;-1.086;2022-12-07T20:55:34;32;28;
33264;PMS5003;31404;53.974;-1.086;2022-12-07T21:00:34;27;21;
33264;PMS5003;31404;53.974;-1.086;2022-12-07T21:05:34;34;29;
33264;PMS5003;31404;53.974;-1.086;2022-12-07T21:10:34;20;13;
33264;PMS5003;31404;53.974;-1.086;2022-12-07T21:15:36;8;7;
33264;PMS5003;31404;53.974;-1.086;2022-12-07T21:20:34;10;8;
33264;PMS5003;31404;53.974;-1.086;2022-12-07T21:25:34;9;9;
33264;PMS5003;31404;53.974;-1.086;2022-12-07T21:30:34;7;7;
33264;PMS5003;31404;53.974;-1.086;2022-12-07T21:35:34;19;14;
33264;PMS5003;31404;53.974;-1.086;2022-12-07T21:40:34;14;10;
33264;PMS5003;31404;53.974;-1.086;2022-12-07T21:45:35;22;17;
33264;PMS5003;31404;53.974;-1.086;2022-12-07T21:50:34;17;15;
33264;PMS5003;31404;53.974;-1.086;2022-12-07T22:00:34;15;10;
33264;PMS5003;31404;53.974;-1.086;2022-12-07T22:05:35;16;14;
33264;PMS5003;31404;53.974;-1.086;2022-12-07T22:10:34;18;15;
33264;PMS5003;31404;53.974;-1.086;2022-12-07T22:15:34;14;13;
33264;PMS5003;31404;53.974;-1.086;2022-12-07T22:20:34;9;9;
33264;PMS5003;31404;53.974;-1.086;2022-12-07T22:30:35;10;10;
33264;PMS5003;31404;53.974;-1.086;2022-12-07T22:35:34;15;12;
33264;PMS5003;31404;53.974;-1.086;2022-12-07T22:40:28;15;15;
33264;PMS5003;31404;53.974;-1.086;2022-12-07T23:00:34;20;18;
33264;PMS5003;31404;53.974;-1.086;2022-12-07T23:10:34;33;28;
33264;PMS5003;31404;53.974;-1.086;2022-12-07T23:15:35;34;30;
33264;PMS5003;31404;53.974;-1.086;2022-12-07T23:20:34;20;16;
33264;PMS5003;31404;53.974;-1.086;2022-12-07T23:25:34;17;17;
33264;PMS5003;31404;53.974;-1.086;2022-12-07T23:30:34;24;22;
33264;PMS5003;31404;53.974;-1.086;2022-12-07T23:35:34;23;23;
33264;PMS5003;31404;53.974;-1.086;2022-12-07T23:40:35;17;14;
33264;PMS5003;31404;53.974;-1.086;2022-12-07T23:45:34;10;8;
33264;PMS5003;31404;53.974;-1.086;2022-12-07T23:50:34;15;15;
33264;PMS5003;31404;53.974;-1.086;2022-12-07T23:55:34;14;11;
